sensor_id;sensor_type;location;lat;lon;timestamp;pressure;altitude;pressure_sealevel;temperature;humidity
56604;BME280;42486;47.478;19.036;2023-01-26T00:01:36;101048.09;;;2.10;100.00
56604;BME280;42486;47.478;19.036;2023-01-26T00:04:46;101040.53;;;2.04;100.00
56604;BME280;42486;47.478;19.036;2023-01-26T00:07:52;101042.28;;;2.03;100.00
56604;BME280;42486;47.478;19.036;2023-01-26T00:11:07;101034.47;;;2.06;100.00
56604;BME280;42486;47.478;19.036;2023-01-26T00:14:17;101037.06;;;2.05;100.00
56604;BME280;42486;47.478;19.036;2023-01-26T00:17:21;101036.03;;;2.12;100.00
56604;BME280;42486;47.478;19.036;2023-01-26T00:20:32;101026.63;;;2.09;100.00
56604;BME280;42486;47.478;19.036;2023-01-26T00:23:36;101025.84;;;2.07;100.00
56604;BME280;42486;47.478;19.036;2023-01-26T00:26:41;101025.59;;;2.16;100.00
56604;BME280;42486;47.478;19.036;2023-01-26T00:29:45;101024.66;;;2.19;100.00
56604;BME280;42486;47.478;19.036;2023-01-26T00:32:49;101023.87;;;2.15;100.00
56604;BME280;42486;47.478;19.036;2023-01-26T00:35:57;101023.66;;;2.25;100.00
56604;BME280;42486;47.478;19.036;2023-01-26T00:39:02;101016.75;;;2.25;100.00
56604;BME280;42486;47.478;19.036;2023-01-26T00:42:05;101016.41;;;2.37;100.00
56604;BME280;42486;47.478;19.036;2023-01-26T00:45:09;101022.50;;;2.35;100.00
56604;BME280;42486;47.478;19.036;2023-01-26T00:48:18;101022.38;;;2.39;100.00
56604;BME280;42486;47.478;19.036;2023-01-26T00:51:21;101011.78;;;2.49;100.00
56604;BME280;42486;47.478;19.036;2023-01-26T00:54:26;101010.72;;;2.56;100.00
56604;BME280;42486;47.478;19.036;2023-01-26T00:57:31;101010.88;;;2.50;100.00
56604;BME280;42486;47.478;19.036;2023-01-26T01:00:38;101013.41;;;2.51;100.00
56604;BME280;42486;47.478;19.036;2023-01-26T01:03:43;101003.44;;;2.39;100.00
56604;BME280;42486;47.478;19.036;2023-01-26T01:06:48;100989.13;;;2.29;100.00
56604;BME280;42486;47.478;19.036;2023-01-26T01:09:56;100992.63;;;2.28;100.00
56604;BME280;42486;47.478;19.036;2023-01-26T01:13:01;101006.41;;;2.27;100.00
56604;BME280;42486;47.478;19.036;2023-01-26T01:16:10;100999.19;;;2.38;100.00
56604;BME280;42486;47.478;19.036;2023-01-26T01:19:21;101000.78;;;2.42;100.00
56604;BME280;42486;47.478;19.036;2023-01-26T01:22:27;101003.63;;;2.33;100.00
56604;BME280;42486;47.478;19.036;2023-01-26T01:25:32;100996.50;;;2.42;100.00
56604;BME280;42486;47.478;19.036;2023-01-26T01:28:37;100995.91;;;2.33;100.00
56604;BME280;42486;47.478;19.036;2023-01-26T01:31:43;100990.25;;;2.20;100.00
56604;BME280;42486;47.478;19.036;2023-01-26T01:34:54;100983.94;;;2.30;100.00
56604;BME280;42486;47.478;19.036;2023-01-26T01:38:01;100985.72;;;2.28;100.00
56604;BME280;42486;47.478;19.036;2023-01-26T01:41:15;100980.78;;;2.20;100.00
56604;BME280;42486;47.478;19.036;2023-01-26T01:44:24;100980.78;;;2.20;100.00
56604;BME280;42486;47.478;19.036;2023-01-26T01:47:31;100975.59;;;2.22;100.00
56604;BME280;42486;47.478;19.036;2023-01-26T01:50:38;100970.41;;;2.24;100.00
56604;BME280;42486;47.478;19.036;2023-01-26T01:53:49;100973.91;;;2.21;100.00
56604;BME280;42486;47.478;19.036;2023-01-26T01:57:02;100965.63;;;2.10;100.00
56604;BME280;42486;47.478;19.036;2023-01-26T02:00:09;100968.78;;;2.19;100.00
56604;BME280;42486;47.478;19.036;2023-01-26T02:03:14;100964.47;;;2.20;100.00
56604;BME280;42486;47.478;19.036;2023-01-26T02:06:50;100964.97;;;2.33;100.00
56604;BME280;42486;47.478;19.036;2023-01-26T02:09:59;100962.47;;;2.30;100.00
56604;BME280;42486;47.478;19.036;2023-01-26T02:13:23;100954.88;;;2.25;100.00
56604;BME280;42486;47.478;19.036;2023-01-26T02:16:30;100946.41;;;2.22;100.00
56604;BME280;42486;47.478;19.036;2023-01-26T02:26:12;100940.62;;;2.13;100.00
56604;BME280;42486;47.478;19.036;2023-01-26T02:29:15;100936.44;;;2.09;100.00
56604;BME280;42486;47.478;19.036;2023-01-26T02:32:18;100929.63;;;2.07;100.00
56604;BME280;42486;47.478;19.036;2023-01-26T02:35:23;100921.34;;;1.97;100.00
56604;BME280;42486;47.478;19.036;2023-01-26T02:38:40;100919.56;;;1.99;100.00
56604;BME280;42486;47.478;19.036;2023-01-26T02:41:48;100912.94;;;1.90;100.00
56604;BME280;42486;47.478;19.036;2023-01-26T02:45:15;100912.00;;;1.93;100.00
56604;BME280;42486;47.478;19.036;2023-01-26T02:48:23;100910.44;;;1.87;100.00
56604;BME280;42486;47.478;19.036;2023-01-26T02:51:47;100907.06;;;1.85;100.00
56604;BME280;42486;47.478;19.036;2023-01-26T02:54:51;100894.47;;;1.76;100.00
56604;BME280;42486;47.478;19.036;2023-01-26T02:58:20;100893.06;;;1.94;100.00
56604;BME280;42486;47.478;19.036;2023-01-26T03:01:27;100889.53;;;1.98;100.00
56604;BME280;42486;47.478;19.036;2023-01-26T03:04:34;100889.56;;;1.96;100.00
56604;BME280;42486;47.478;19.036;2023-01-26T03:07:40;100881.94;;;1.93;100.00
56604;BME280;42486;47.478;19.036;2023-01-26T03:10:49;100876.53;;;2.03;100.00
56604;BME280;42486;47.478;19.036;2023-01-26T03:13:58;100881.00;;;1.96;100.00
56604;BME280;42486;47.478;19.036;2023-01-26T03:17:03;100876.66;;;1.98;100.00
56604;BME280;42486;47.478;19.036;2023-01-26T03:20:08;100877.91;;;1.85;100.00
56604;BME280;42486;47.478;19.036;2023-01-26T03:23:32;100871.50;;;1.98;100.00
56604;BME280;42486;47.478;19.036;2023-01-26T03:26:57;100862.00;;;2.00;100.00
56604;BME280;42486;47.478;19.036;2023-01-26T03:30:19;100859.75;;;1.89;100.00
56604;BME280;42486;47.478;19.036;2023-01-26T03:33:24;100862.41;;;1.86;100.00
56604;BME280;42486;47.478;19.036;2023-01-26T03:36:29;100850.53;;;1.81;100.00
56604;BME280;42486;47.478;19.036;2023-01-26T03:39:34;100853.81;;;1.86;100.00
56604;BME280;42486;47.478;19.036;2023-01-26T03:42:56;100846.84;;;1.89;100.00
56604;BME280;42486;47.478;19.036;2023-01-26T03:46:18;100843.37;;;1.90;100.00
56604;BME280;42486;47.478;19.036;2023-01-26T03:49:41;100846.84;;;1.89;100.00
56604;BME280;42486;47.478;19.036;2023-01-26T03:53:17;100849.28;;;1.94;100.00
56604;BME280;42486;47.478;19.036;2023-01-26T03:56:46;100839.06;;;1.91;100.00
56604;BME280;42486;47.478;19.036;2023-01-26T03:59:59;100838.25;;;1.89;100.00
56604;BME280;42486;47.478;19.036;2023-01-26T04:03:06;100834.91;;;1.87;100.00
56604;BME280;42486;47.478;19.036;2023-01-26T04:06:32;100827.22;;;1.85;100.00
56604;BME280;42486;47.478;19.036;2023-01-26T04:09:55;100829.25;;;1.74;100.00
56604;BME280;42486;47.478;19.036;2023-01-26T04:13:02;100831.22;;;1.94;100.00
56604;BME280;42486;47.478;19.036;2023-01-26T04:16:25;100821.88;;;1.91;100.00
56604;BME280;42486;47.478;19.036;2023-01-26T04:19:47;100823.75;;;1.86;100.00
56604;BME280;42486;47.478;19.036;2023-01-26T04:23:19;100814.44;;;1.82;100.00
56604;BME280;42486;47.478;19.036;2023-01-26T04:26:24;100810.25;;;1.78;100.00
56604;BME280;42486;47.478;19.036;2023-01-26T04:29:28;100813.84;;;1.72;100.00
56604;BME280;42486;47.478;19.036;2023-01-26T04:32:31;100815.59;;;1.72;100.00
56604;BME280;42486;47.478;19.036;2023-01-26T04:35:34;100810.41;;;1.73;100.00
56604;BME280;42486;47.478;19.036;2023-01-26T04:38:37;100803.50;;;1.74;100.00
56604;BME280;42486;47.478;19.036;2023-01-26T04:41:41;100809.25;;;1.84;100.00
56604;BME280;42486;47.478;19.036;2023-01-26T04:44:49;100809.38;;;1.79;100.00
56604;BME280;42486;47.478;19.036;2023-01-26T04:47:57;100808.06;;;1.94;100.00
56604;BME280;42486;47.478;19.036;2023-01-26T04:51:15;100811.75;;;1.85;100.00
56604;BME280;42486;47.478;19.036;2023-01-26T04:54:18;100806.03;;;1.75;100.00
56604;BME280;42486;47.478;19.036;2023-01-26T04:57:22;100803.53;;;1.72;100.00
56604;BME280;42486;47.478;19.036;2023-01-26T05:00:26;100800.25;;;1.67;100.00
56604;BME280;42486;47.478;19.036;2023-01-26T05:03:31;100807.00;;;1.73;100.00
56604;BME280;42486;47.478;19.036;2023-01-26T05:06:38;100801.75;;;1.76;100.00
56604;BME280;42486;47.478;19.036;2023-01-26T05:09:45;100804.22;;;1.79;100.00
56604;BME280;42486;47.478;19.036;2023-01-26T05:12:50;100804.00;;;1.87;100.00
56604;BME280;42486;47.478;19.036;2023-01-26T05:15:53;100804.13;;;1.82;100.00
56604;BME280;42486;47.478;19.036;2023-01-26T05:18:56;100800.22;;;1.69;100.00
56604;BME280;42486;47.478;19.036;2023-01-26T05:22:08;100795.09;;;1.67;100.00
56604;BME280;42486;47.478;19.036;2023-01-26T05:25:14;100797.75;;;1.66;100.00
56604;BME280;42486;47.478;19.036;2023-01-26T05:28:17;100801.19;;;1.65;100.00
56604;BME280;42486;47.478;19.036;2023-01-26T05:31:27;100794.28;;;1.67;100.00
56604;BME280;42486;47.478;19.036;2023-01-26T05:34:31;100793.34;;;1.69;100.00
56604;BME280;42486;47.478;19.036;2023-01-26T05:37:39;100796.69;;;1.73;100.00
56604;BME280;42486;47.478;19.036;2023-01-26T05:40:46;100801.88;;;1.71;100.00
56604;BME280;42486;47.478;19.036;2023-01-26T05:43:49;100802.81;;;1.69;100.00
56604;BME280;42486;47.478;19.036;2023-01-26T05:46:53;100810.50;;;1.70;100.00
56604;BME280;42486;47.478;19.036;2023-01-26T05:49:56;100804.22;;;1.79;100.00
56604;BME280;42486;47.478;19.036;2023-01-26T05:53:00;100810.31;;;1.76;100.00
56604;BME280;42486;47.478;19.036;2023-01-26T05:56:10;100805.16;;;1.76;100.00
56604;BME280;42486;47.478;19.036;2023-01-26T05:59:19;100808.59;;;1.75;100.00
56604;BME280;42486;47.478;19.036;2023-01-26T06:02:25;100808.84;;;1.68;100.00
56604;BME280;42486;47.478;19.036;2023-01-26T06:05:31;100811.50;;;1.65;100.00
56604;BME280;42486;47.478;19.036;2023-01-26T06:08:36;100816.63;;;1.66;100.00
56604;BME280;42486;47.478;19.036;2023-01-26T06:11:41;100810.25;;;1.78;100.00
56604;BME280;42486;47.478;19.036;2023-01-26T06:14:47;100805.25;;;1.73;100.00
56604;BME280;42486;47.478;19.036;2023-01-26T06:17:52;100806.41;;;1.63;100.00
56604;BME280;42486;47.478;19.036;2023-01-26T06:21:00;100806.19;;;1.71;100.00
56604;BME280;42486;47.478;19.036;2023-01-26T06:24:04;100803.94;;;1.60;100.00
56604;BME280;42486;47.478;19.036;2023-01-26T06:27:14;100806.50;;;1.60;100.00
56604;BME280;42486;47.478;19.036;2023-01-26T06:30:21;100809.19;;;1.56;100.00
56604;BME280;42486;47.478;19.036;2023-01-26T06:33:36;100814.47;;;1.51;100.00
56604;BME280;42486;47.478;19.036;2023-01-26T06:36:39;100809.94;;;1.59;100.00
56604;BME280;42486;47.478;19.036;2023-01-26T06:39:43;100805.66;;;1.60;100.00
56604;BME280;42486;47.478;19.036;2023-01-26T06:42:50;100807.16;;;1.67;100.00
56604;BME280;42486;47.478;19.036;2023-01-26T06:45:56;100809.16;;;1.57;100.00
56604;BME280;42486;47.478;19.036;2023-01-26T06:49:09;100804.88;;;1.56;100.00
56604;BME280;42486;47.478;19.036;2023-01-26T06:52:31;100801.38;;;1.59;100.00
56604;BME280;42486;47.478;19.036;2023-01-26T06:55:39;100797.22;;;1.54;100.00
56604;BME280;42486;47.478;19.036;2023-01-26T06:58:47;100796.34;;;1.54;100.00
56604;BME280;42486;47.478;19.036;2023-01-26T07:01:50;100795.28;;;1.63;100.00
56604;BME280;42486;47.478;19.036;2023-01-26T07:04:54;100799.47;;;1.65;100.00
56604;BME280;42486;47.478;19.036;2023-01-26T07:07:59;100795.09;;;1.67;100.00
56604;BME280;42486;47.478;19.036;2023-01-26T07:11:07;100801.16;;;1.66;100.00
56604;BME280;42486;47.478;19.036;2023-01-26T07:14:11;100799.25;;;1.73;100.00
56604;BME280;42486;47.478;19.036;2023-01-26T07:17:31;100791.56;;;1.71;100.00
56604;BME280;42486;47.478;19.036;2023-01-26T07:20:47;100784.78;;;1.69;100.00
56604;BME280;42486;47.478;19.036;2023-01-26T07:23:58;100791.66;;;1.68;100.00
56604;BME280;42486;47.478;19.036;2023-01-26T07:27:07;100782.94;;;1.72;100.00
56604;BME280;42486;47.478;19.036;2023-01-26T07:30:13;100781.12;;;1.76;99.93
56604;BME280;42486;47.478;19.036;2023-01-26T07:33:19;100777.94;;;1.68;99.40
56604;BME280;42486;47.478;19.036;2023-01-26T07:36:22;100775.06;;;1.79;100.00
56604;BME280;42486;47.478;19.036;2023-01-26T07:39:32;100771.53;;;1.81;97.78
56604;BME280;42486;47.478;19.036;2023-01-26T07:42:36;100770.22;;;1.68;98.62
56604;BME280;42486;47.478;19.036;2023-01-26T07:45:51;100778.09;;;1.62;99.69
56604;BME280;42486;47.478;19.036;2023-01-26T07:48:55;100771.19;;;1.64;96.15
56604;BME280;42486;47.478;19.036;2023-01-26T07:52:01;100773.72;;;1.65;95.64
56604;BME280;42486;47.478;19.036;2023-01-26T07:55:08;100776.84;;;1.75;97.05
56604;BME280;42486;47.478;19.036;2023-01-26T07:58:15;100778.16;;;1.88;97.61
56604;BME280;42486;47.478;19.036;2023-01-26T08:01:24;100780.84;;;1.85;95.57
56604;BME280;42486;47.478;19.036;2023-01-26T08:04:30;100779.81;;;1.91;95.18
56604;BME280;42486;47.478;19.036;2023-01-26T08:07:35;100779.31;;;1.80;94.78
56604;BME280;42486;47.478;19.036;2023-01-26T08:10:40;100781.03;;;1.79;94.46
56604;BME280;42486;47.478;19.036;2023-01-26T08:13:45;100777.75;;;1.74;94.92
56604;BME280;42486;47.478;19.036;2023-01-26T08:16:54;100775.22;;;1.72;99.41
56604;BME280;42486;47.478;19.036;2023-01-26T08:19:59;100782.69;;;1.82;97.56
56604;BME280;42486;47.478;19.036;2023-01-26T08:23:05;100777.41;;;1.86;98.27
56604;BME280;42486;47.478;19.036;2023-01-26T08:26:11;100777.13;;;1.94;96.05
56604;BME280;42486;47.478;19.036;2023-01-26T08:29:16;100773.84;;;1.89;94.77
56604;BME280;42486;47.478;19.036;2023-01-26T08:32:20;100778.94;;;1.92;94.24
56604;BME280;42486;47.478;19.036;2023-01-26T08:35:26;100770.34;;;1.91;94.15
56604;BME280;42486;47.478;19.036;2023-01-26T08:38:36;100778.00;;;1.94;93.68
56604;BME280;42486;47.478;19.036;2023-01-26T08:41:39;100779.72;;;1.94;94.98
56604;BME280;42486;47.478;19.036;2023-01-26T08:44:45;100773.13;;;1.85;94.38
56604;BME280;42486;47.478;19.036;2023-01-26T08:47:54;100777.47;;;1.83;94.46
56604;BME280;42486;47.478;19.036;2023-01-26T08:51:02;100778.38;;;1.82;94.92
56604;BME280;42486;47.478;19.036;2023-01-26T08:54:09;100777.13;;;1.94;95.05
56604;BME280;42486;47.478;19.036;2023-01-26T08:57:15;100781.50;;;1.92;93.18
56604;BME280;42486;47.478;19.036;2023-01-26T09:00:22;100775.56;;;1.90;94.31
56604;BME280;42486;47.478;19.036;2023-01-26T09:03:28;100777.69;;;2.04;96.34
56604;BME280;42486;47.478;19.036;2023-01-26T09:06:32;100771.59;;;2.06;94.44
56604;BME280;42486;47.478;19.036;2023-01-26T09:09:36;100779.13;;;2.12;93.06
56604;BME280;42486;47.478;19.036;2023-01-26T09:12:43;100777.31;;;2.16;93.35
56604;BME280;42486;47.478;19.036;2023-01-26T09:15:51;100773.59;;;2.25;95.42
56604;BME280;42486;47.478;19.036;2023-01-26T09:18:55;100775.28;;;2.26;93.93
56604;BME280;42486;47.478;19.036;2023-01-26T09:21:59;100777.66;;;2.32;92.03
56604;BME280;42486;47.478;19.036;2023-01-26T09:25:10;100776.88;;;2.30;92.21
56604;BME280;42486;47.478;19.036;2023-01-26T09:28:17;100774.16;;;2.34;92.65
56604;BME280;42486;47.478;19.036;2023-01-26T09:31:21;100773.47;;;2.29;91.86
56604;BME280;42486;47.478;19.036;2023-01-26T09:34:24;100770.56;;;2.38;94.72
56604;BME280;42486;47.478;19.036;2023-01-26T09:37:27;100768.87;;;2.37;91.83
56604;BME280;42486;47.478;19.036;2023-01-26T09:44:23;100764.78;;;2.32;91.22
56604;BME280;42486;47.478;19.036;2023-01-26T09:47:55;100759.53;;;2.35;91.62
56604;BME280;42486;47.478;19.036;2023-01-26T09:54:49;100754.63;;;2.52;91.88
56604;BME280;42486;47.478;19.036;2023-01-26T10:01:53;100745.47;;;2.43;90.96
56604;BME280;42486;47.478;19.036;2023-01-26T10:05:18;100737.50;;;2.50;91.00
56604;BME280;42486;47.478;19.036;2023-01-26T10:08:24;100738.31;;;2.52;89.09
56604;BME280;42486;47.478;19.036;2023-01-26T10:11:56;100725.78;;;2.41;90.68
56604;BME280;42486;47.478;19.036;2023-01-26T10:15:08;100718.69;;;2.48;92.99
56604;BME280;42486;47.478;19.036;2023-01-26T10:18:35;100715.09;;;2.52;92.83
56604;BME280;42486;47.478;19.036;2023-01-26T10:21:46;100713.31;;;2.54;90.27
56604;BME280;42486;47.478;19.036;2023-01-26T10:24:54;100712.25;;;2.59;91.23
56604;BME280;42486;47.478;19.036;2023-01-26T10:27:58;100705.63;;;2.52;91.39
56604;BME280;42486;47.478;19.036;2023-01-26T10:34:24;100694.06;;;2.39;91.23
56604;BME280;42486;47.478;19.036;2023-01-26T10:37:32;100685.94;;;2.25;91.23
56604;BME280;42486;47.478;19.036;2023-01-26T10:40:44;100693.72;;;2.23;95.83
56604;BME280;42486;47.478;19.036;2023-01-26T10:47:43;100684.19;;;2.27;92.60
56604;BME280;42486;47.478;19.036;2023-01-26T10:51:41;100683.63;;;2.17;91.86
56604;BME280;42486;47.478;19.036;2023-01-26T10:54:48;100686.22;;;2.17;92.68
56604;BME280;42486;47.478;19.036;2023-01-26T10:58:00;100681.19;;;2.12;95.89
56604;BME280;42486;47.478;19.036;2023-01-26T11:01:07;100675.31;;;2.09;94.44
56604;BME280;42486;47.478;19.036;2023-01-26T11:04:18;100667.28;;;1.91;96.52
56604;BME280;42486;47.478;19.036;2023-01-26T11:07:33;100665.47;;;1.95;98.61
56604;BME280;42486;47.478;19.036;2023-01-26T11:10:38;100657.87;;;1.90;94.67
56604;BME280;42486;47.478;19.036;2023-01-26T11:13:42;100666.53;;;1.89;94.28
56604;BME280;42486;47.478;19.036;2023-01-26T11:17:14;100657.06;;;1.90;95.62
56604;BME280;42486;47.478;19.036;2023-01-26T11:30:32;100639.84;;;1.90;98.30
56604;BME280;42486;47.478;19.036;2023-01-26T11:40:59;100630.97;;;1.99;95.49
56604;BME280;42486;47.478;19.036;2023-01-26T11:50:56;100615.31;;;2.30;94.90
56604;BME280;42486;47.478;19.036;2023-01-26T11:57:40;100602.81;;;2.43;92.67
56604;BME280;42486;47.478;19.036;2023-01-26T12:00:57;100603.16;;;2.57;93.18
56604;BME280;42486;47.478;19.036;2023-01-26T12:04:03;100597.00;;;2.61;93.90
56604;BME280;42486;47.478;19.036;2023-01-26T12:07:16;100583.03;;;2.67;92.09
56604;BME280;42486;47.478;19.036;2023-01-26T12:13:39;100578.50;;;2.50;93.71
56604;BME280;42486;47.478;19.036;2023-01-26T12:16:57;100571.16;;;2.39;93.31
56604;BME280;42486;47.478;19.036;2023-01-26T12:20:36;100571.59;;;2.51;93.26
56604;BME280;42486;47.478;19.036;2023-01-26T12:23:50;100570.53;;;2.56;92.41
56604;BME280;42486;47.478;19.036;2023-01-26T12:27:01;100568.66;;;2.36;94.20
56604;BME280;42486;47.478;19.036;2023-01-26T12:33:20;100567.00;;;2.35;94.64
56604;BME280;42486;47.478;19.036;2023-01-26T12:36:46;100568.22;;;2.49;96.64
56604;BME280;42486;47.478;19.036;2023-01-26T12:43:44;100561.41;;;2.48;95.42
56604;BME280;42486;47.478;19.036;2023-01-26T12:46:58;100552.37;;;2.36;95.76
56604;BME280;42486;47.478;19.036;2023-01-26T12:50:25;100550.47;;;2.41;95.92
56604;BME280;42486;47.478;19.036;2023-01-26T12:56:54;100546.78;;;2.48;96.12
56604;BME280;42486;47.478;19.036;2023-01-26T13:00:27;100542.13;;;2.34;94.93
56604;BME280;42486;47.478;19.036;2023-01-26T13:03:33;100546.94;;;2.43;94.68
56604;BME280;42486;47.478;19.036;2023-01-26T13:06:40;100540.97;;;2.41;95.54
56604;BME280;42486;47.478;19.036;2023-01-26T13:22:46;100529.91;;;2.39;96.54
56604;BME280;42486;47.478;19.036;2023-01-26T13:35:31;100522.16;;;2.16;97.43
56604;BME280;42486;47.478;19.036;2023-01-26T13:38:38;100529.91;;;2.16;96.24
56604;BME280;42486;47.478;19.036;2023-01-26T13:41:45;100532.81;;;2.30;97.50
56604;BME280;42486;47.478;19.036;2023-01-26T13:48:42;100527.22;;;2.19;97.43
56604;BME280;42486;47.478;19.036;2023-01-26T13:51:47;100536.63;;;2.20;98.19
56604;BME280;42486;47.478;19.036;2023-01-26T13:54:53;100536.19;;;2.07;100.00
56604;BME280;42486;47.478;19.036;2023-01-26T13:58:14;100531.84;;;2.09;100.00
56604;BME280;42486;47.478;19.036;2023-01-26T14:01:19;100519.31;;;2.00;100.00
56604;BME280;42486;47.478;19.036;2023-01-26T14:04:32;100522.00;;;1.97;100.00
56604;BME280;42486;47.478;19.036;2023-01-26T14:07:40;100522.81;;;1.97;100.00
56604;BME280;42486;47.478;19.036;2023-01-26T14:10:44;100518.50;;;1.98;100.00
56604;BME280;42486;47.478;19.036;2023-01-26T14:13:51;100521.91;;;1.98;100.00
56604;BME280;42486;47.478;19.036;2023-01-26T14:16:57;100524.84;;;1.89;100.00
56604;BME280;42486;47.478;19.036;2023-01-26T14:20:38;100520.75;;;1.84;100.00
56604;BME280;42486;47.478;19.036;2023-01-26T14:23:41;100522.25;;;1.89;100.00
56604;BME280;42486;47.478;19.036;2023-01-26T14:26:46;100526.25;;;1.98;100.00
56604;BME280;42486;47.478;19.036;2023-01-26T14:29:50;100529.03;;;1.92;100.00
56604;BME280;42486;47.478;19.036;2023-01-26T14:33:14;100527.59;;;1.83;100.00
56604;BME280;42486;47.478;19.036;2023-01-26T14:36:20;100526.75;;;1.83;100.00
56604;BME280;42486;47.478;19.036;2023-01-26T14:39:28;100529.34;;;1.83;100.00
56604;BME280;42486;47.478;19.036;2023-01-26T14:42:34;100524.16;;;1.84;100.00
56604;BME280;42486;47.478;19.036;2023-01-26T14:45:42;100517.25;;;1.85;100.00
56604;BME280;42486;47.478;19.036;2023-01-26T14:49:03;100516.19;;;1.90;100.00
56604;BME280;42486;47.478;19.036;2023-01-26T14:52:25;100513.66;;;1.89;100.00
56604;BME280;42486;47.478;19.036;2023-01-26T14:55:32;100519.41;;;1.97;100.00
56604;BME280;42486;47.478;19.036;2023-01-26T14:58:36;100513.97;;;1.81;100.00
56604;BME280;42486;47.478;19.036;2023-01-26T15:01:41;100508.47;;;1.90;100.00
56604;BME280;42486;47.478;19.036;2023-01-26T15:04:54;100512.09;;;1.85;100.00
56604;BME280;42486;47.478;19.036;2023-01-26T15:11:04;100515.19;;;1.69;100.00
56604;BME280;42486;47.478;19.036;2023-01-26T15:14:59;100518.72;;;1.67;100.00
56604;BME280;42486;47.478;19.036;2023-01-26T15:21:19;100518.16;;;1.59;100.00
56604;BME280;42486;47.478;19.036;2023-01-26T15:24:28;100519.19;;;1.53;100.00
56604;BME280;42486;47.478;19.036;2023-01-26T15:27:34;100515.81;;;1.51;100.00
56604;BME280;42486;47.478;19.036;2023-01-26T15:30:47;100513.25;;;1.51;100.00
56604;BME280;42486;47.478;19.036;2023-01-26T15:33:54;100517.69;;;1.47;100.00
56604;BME280;42486;47.478;19.036;2023-01-26T15:36:59;100513.34;;;1.48;100.00
56604;BME280;42486;47.478;19.036;2023-01-26T15:40:05;100510.69;;;1.51;99.48
56604;BME280;42486;47.478;19.036;2023-01-26T15:46:18;100515.72;;;1.54;96.27
56604;BME280;42486;47.478;19.036;2023-01-26T15:49:25;100513.31;;;1.49;93.61
56604;BME280;42486;47.478;19.036;2023-01-26T15:52:31;100512.44;;;1.49;91.53
56604;BME280;42486;47.478;19.036;2023-01-26T15:55:34;100508.94;;;1.51;92.25
56604;BME280;42486;47.478;19.036;2023-01-26T15:58:39;100523.62;;;1.49;89.41
56604;BME280;42486;47.478;19.036;2023-01-26T16:01:45;100519.22;;;1.51;91.74
56604;BME280;42486;47.478;19.036;2023-01-26T16:04:52;100529.59;;;1.50;85.73
56604;BME280;42486;47.478;19.036;2023-01-26T16:07:59;100523.66;;;1.48;86.30
56604;BME280;42486;47.478;19.036;2023-01-26T16:11:07;100531.34;;;1.49;86.93
56604;BME280;42486;47.478;19.036;2023-01-26T16:14:12;100527.97;;;1.47;85.71
56604;BME280;42486;47.478;19.036;2023-01-26T16:17:25;100523.72;;;1.46;84.74
56604;BME280;42486;47.478;19.036;2023-01-26T16:20:28;100522.09;;;1.44;86.63
56604;BME280;42486;47.478;19.036;2023-01-26T16:23:31;100522.00;;;1.47;86.61
56604;BME280;42486;47.478;19.036;2023-01-26T16:26:35;100529.53;;;1.51;89.56
56604;BME280;42486;47.478;19.036;2023-01-26T16:29:38;100515.78;;;1.52;82.63
56604;BME280;42486;47.478;19.036;2023-01-26T16:32:42;100523.50;;;1.52;82.49
56604;BME280;42486;47.478;19.036;2023-01-26T16:35:52;100525.72;;;1.63;84.80
56604;BME280;42486;47.478;19.036;2023-01-26T16:39:00;100523.28;;;1.59;81.54
56604;BME280;42486;47.478;19.036;2023-01-26T16:42:04;100518.97;;;1.59;82.78
56604;BME280;42486;47.478;19.036;2023-01-26T16:45:22;100528.59;;;1.54;81.28
56604;BME280;42486;47.478;19.036;2023-01-26T16:48:26;100525.41;;;1.47;84.04
56604;BME280;42486;47.478;19.036;2023-01-26T16:51:37;100518.47;;;1.49;86.43
56604;BME280;42486;47.478;19.036;2023-01-26T16:54:42;100516.47;;;1.58;84.54
56604;BME280;42486;47.478;19.036;2023-01-26T16:57:49;100519.34;;;1.48;84.94
56604;BME280;42486;47.478;19.036;2023-01-26T17:00:56;100512.44;;;1.49;87.20
56604;BME280;42486;47.478;19.036;2023-01-26T17:04:02;100512.44;;;1.49;85.26
56604;BME280;42486;47.478;19.036;2023-01-26T17:07:06;100509.25;;;1.42;86.00
56604;BME280;42486;47.478;19.036;2023-01-26T17:10:12;100502.44;;;1.41;86.35
56604;BME280;42486;47.478;19.036;2023-01-26T17:13:15;100504.25;;;1.38;87.83
56604;BME280;42486;47.478;19.036;2023-01-26T17:16:21;100497.44;;;1.37;89.20
56604;BME280;42486;47.478;19.036;2023-01-26T17:19:29;100498.75;;;1.48;89.96
56604;BME280;42486;47.478;19.036;2023-01-26T17:22:35;100506.38;;;1.51;90.27
56604;BME280;42486;47.478;19.036;2023-01-26T17:25:38;100498.13;;;1.42;89.15
56604;BME280;42486;47.478;19.036;2023-01-26T17:28:46;100498.97;;;1.42;88.74
56604;BME280;42486;47.478;19.036;2023-01-26T17:31:50;100507.59;;;1.41;87.53
56604;BME280;42486;47.478;19.036;2023-01-26T17:34:55;100500.69;;;1.42;87.97
56604;BME280;42486;47.478;19.036;2023-01-26T17:37:58;100495.56;;;1.42;86.68
56604;BME280;42486;47.478;19.036;2023-01-26T17:41:02;100499.28;;;1.58;87.55
56604;BME280;42486;47.478;19.036;2023-01-26T17:44:06;100495.19;;;1.52;84.35
56604;BME280;42486;47.478;19.036;2023-01-26T17:47:16;100495.13;;;1.54;83.04
56604;BME280;42486;47.478;19.036;2023-01-26T17:50:22;100497.91;;;1.48;82.77
56604;BME280;42486;47.478;19.036;2023-01-26T17:53:25;100500.34;;;1.52;84.92
56604;BME280;42486;47.478;19.036;2023-01-26T17:56:31;100491.97;;;1.46;83.55
56604;BME280;42486;47.478;19.036;2023-01-26T17:59:36;100494.63;;;1.44;84.44
56604;BME280;42486;47.478;19.036;2023-01-26T18:02:39;100493.72;;;1.45;83.71
56604;BME280;42486;47.478;19.036;2023-01-26T18:05:49;100486.25;;;1.38;84.89